createdAt,value
2023-04-28T00:00:37.815Z,2107.00
2023-04-28T00:01:37.778Z,2097.00
2023-04-28T00:02:37.787Z,2088.00
2023-04-28T00:03:37.852Z,2089.00
2023-04-28T00:04:37.954Z,2084.00
2023-04-28T00:05:37.756Z,2083.00
2023-04-28T00:06:37.595Z,2087.00
2023-04-28T00:07:37.551Z,2086.00
2023-04-28T00:08:37.531Z,2095.00
2023-04-28T00:09:37.472Z,2097.00
2023-04-28T00:10:37.433Z,2094.00
2023-04-28T00:11:37.390Z,2095.00
2023-04-28T00:12:37.367Z,2095.00
2023-04-28T00:13:37.317Z,2104.00
2023-04-28T00:14:37.279Z,2084.00
2023-04-28T00:15:37.234Z,2091.00
2023-04-28T00:16:37.239Z,2094.00
2023-04-28T00:17:37.275Z,2093.00
2023-04-28T00:18:37.118Z,2096.00
2023-04-28T00:19:37.087Z,2084.00
2023-04-28T00:20:37.036Z,2085.00
2023-04-28T00:21:37.004Z,2079.00
2023-04-28T00:22:36.984Z,2081.00
2023-04-28T00:23:36.930Z,2076.00
2023-04-28T00:24:36.894Z,2073.00
2023-04-28T00:25:36.851Z,2071.00
2023-04-28T00:26:36.825Z,2073.00
2023-04-28T00:27:36.775Z,2077.00
2023-04-28T00:28:36.742Z,2076.00
2023-04-28T00:29:36.718Z,2073.00
2023-04-28T00:30:36.661Z,2072.00
2023-04-28T00:31:36.658Z,2068.00
2023-04-28T00:32:36.599Z,2075.00
2023-04-28T00:33:36.550Z,2077.00
2023-04-28T00:34:36.514Z,2082.00
2023-04-28T00:35:36.488Z,2077.00
2023-04-28T00:36:36.439Z,2076.00
2023-04-28T00:37:36.393Z,2068.00
2023-04-28T00:38:36.347Z,2070.00
2023-04-28T00:39:36.301Z,2052.00
2023-04-28T00:40:36.275Z,2054.00
2023-04-28T00:41:36.229Z,2056.00
2023-04-28T00:42:36.189Z,2059.00
2023-04-28T00:43:36.148Z,2059.00
2023-04-28T00:44:36.118Z,2056.00
2023-04-28T00:45:36.171Z,2049.00
2023-04-28T00:46:36.027Z,2056.00
2023-04-28T00:47:36.024Z,2057.00
2023-04-28T00:48:35.976Z,2055.00
2023-04-28T00:49:35.939Z,2055.00
2023-04-28T00:50:35.914Z,2058.00
2023-04-28T00:51:35.856Z,2052.00
2023-04-28T00:52:35.805Z,2054.00
2023-04-28T00:53:35.778Z,2050.00
2023-04-28T00:54:35.734Z,2048.00
2023-04-28T00:55:35.740Z,2041.00
2023-04-28T00:56:35.683Z,2035.00
2023-04-28T00:57:35.643Z,2032.00
2023-04-28T00:58:35.608Z,2028.00
2023-04-28T00:59:35.572Z,2028.00
2023-04-28T01:00:35.539Z,2028.00
2023-04-28T01:01:35.530Z,2039.00
2023-04-28T01:02:35.537Z,2040.00
2023-04-28T01:03:35.607Z,2036.00
2023-04-28T01:04:35.565Z,2036.00
2023-04-28T01:05:35.438Z,2035.00
2023-04-28T01:06:35.420Z,2040.00
2023-04-28T01:07:35.407Z,2041.00
2023-04-28T01:08:35.404Z,2041.00
2023-04-28T01:09:35.389Z,2043.00
2023-04-28T01:10:35.392Z,2040.00
2023-04-28T01:11:35.385Z,2036.00
2023-04-28T01:12:35.391Z,2032.00
2023-04-28T01:13:35.415Z,2035.00
2023-04-28T01:14:35.415Z,2031.00
2023-04-28T01:15:35.412Z,2033.00
2023-04-28T01:16:35.438Z,2025.00
2023-04-28T01:17:35.456Z,2016.00
2023-04-28T01:18:35.438Z,2017.00
2023-04-28T01:19:35.421Z,2014.00
2023-04-28T01:20:35.409Z,2023.00
2023-04-28T01:21:35.404Z,2018.00
2023-04-28T01:22:35.381Z,2015.00
2023-04-28T01:23:35.365Z,2014.00
2023-04-28T01:24:35.337Z,2015.00
2023-04-28T01:25:35.315Z,2015.00
2023-04-28T01:26:35.293Z,2008.00
2023-04-28T01:27:35.288Z,2005.00
2023-04-28T01:28:35.222Z,2005.00
2023-04-28T01:29:35.227Z,2001.00
2023-04-28T01:30:35.232Z,1994.00
2023-04-28T01:31:35.310Z,1992.00
2023-04-28T01:32:35.218Z,1992.00
2023-04-28T01:33:35.189Z,1988.00
2023-04-28T01:34:35.189Z,1987.00
2023-04-28T01:35:35.190Z,1988.00
2023-04-28T01:36:37.408Z,1985.00
2023-04-28T01:37:35.346Z,1979.00
2023-04-28T01:38:35.348Z,1981.00
2023-04-28T01:39:35.344Z,1978.00
2023-04-28T01:40:35.332Z,1976.00
2023-04-28T01:41:35.324Z,1977.00
2023-04-28T01:42:35.306Z,1972.00
2023-04-28T01:43:35.312Z,1973.00
2023-04-28T01:44:35.303Z,1976.00
2023-04-28T01:45:35.330Z,1975.00
2023-04-28T01:46:35.406Z,1978.00
2023-04-28T01:47:35.383Z,1984.00
2023-04-28T01:48:35.335Z,1980.00
2023-04-28T01:49:35.376Z,1985.00
2023-04-28T01:50:35.342Z,1983.00
2023-04-28T01:51:35.348Z,1980.00
2023-04-28T01:52:35.369Z,1983.00
2023-04-28T01:53:35.397Z,1980.00
2023-04-28T01:54:35.424Z,1980.00
2023-04-28T01:55:35.454Z,1982.00
2023-04-28T01:56:35.473Z,1985.00
2023-04-28T01:57:35.487Z,1980.00
2023-04-28T01:58:35.515Z,1977.00
2023-04-28T01:59:35.523Z,1976.00
2023-04-28T02:00:35.544Z,1975.00
2023-04-28T02:01:35.596Z,1977.00
2023-04-28T02:02:35.689Z,1974.00
2023-04-28T02:03:35.758Z,1968.00
2023-04-28T02:04:35.642Z,1969.00
2023-04-28T02:05:35.625Z,1966.00
2023-04-28T02:06:35.634Z,1965.00
2023-04-28T02:07:35.655Z,1964.00
2023-04-28T02:08:35.674Z,1966.00
2023-04-28T02:09:35.799Z,1964.00
2023-04-28T02:10:35.710Z,1964.00
2023-04-28T02:11:35.743Z,1963.00
2023-04-28T02:12:35.749Z,1967.00
2023-04-28T02:13:35.746Z,1966.00
2023-04-28T02:14:35.768Z,1963.00
2023-04-28T02:15:35.797Z,1979.00
2023-04-28T02:16:35.790Z,1978.00
2023-04-28T02:17:35.818Z,1973.00
2023-04-28T02:18:35.818Z,1960.00
2023-04-28T02:19:35.848Z,1954.00
2023-04-28T02:20:35.857Z,1950.00
2023-04-28T02:21:35.865Z,1958.00
2023-04-28T02:22:35.888Z,1960.00
2023-04-28T02:23:35.896Z,1960.00
2023-04-28T02:24:35.923Z,1958.00
2023-04-28T02:25:35.962Z,1951.00
2023-04-28T02:26:35.954Z,1945.00
2023-04-28T02:27:35.967Z,1948.00
2023-04-28T02:28:35.990Z,1942.00
2023-04-28T02:29:35.987Z,1949.00
2023-04-28T02:30:35.998Z,1948.00
2023-04-28T02:31:36.071Z,1952.00
2023-04-28T02:32:36.084Z,1952.00
2023-04-28T02:33:36.029Z,1943.00
2023-04-28T02:34:36.028Z,1943.00
2023-04-28T02:35:36.047Z,1945.00
2023-04-28T02:36:36.069Z,1946.00
2023-04-28T02:37:36.069Z,1949.00
2023-04-28T02:38:36.080Z,1946.00
2023-04-28T02:39:36.090Z,1944.00
2023-04-28T02:40:36.113Z,1930.00
2023-04-28T02:41:36.118Z,1932.00
2023-04-28T02:42:36.132Z,1926.00
2023-04-28T02:43:36.149Z,1930.00
2023-04-28T02:44:36.152Z,1931.00
2023-04-28T02:45:36.169Z,1932.00
2023-04-28T02:46:36.264Z,1920.00
2023-04-28T02:47:36.231Z,1930.00
2023-04-28T02:48:36.222Z,1934.00
2023-04-28T02:49:36.237Z,1934.00
2023-04-28T02:50:36.258Z,1934.00
2023-04-28T02:51:36.274Z,1935.00
2023-04-28T02:52:36.289Z,1937.00
2023-04-28T02:53:36.317Z,1936.00
2023-04-28T02:54:36.340Z,1931.00
2023-04-28T02:55:36.352Z,1931.00
2023-04-28T02:56:36.364Z,1933.00
2023-04-28T02:57:36.382Z,1927.00
2023-04-28T02:58:36.391Z,1928.00
2023-04-28T02:59:36.415Z,1933.00
2023-04-28T03:00:36.423Z,1935.00
2023-04-28T03:01:36.483Z,1929.00
2023-04-28T03:02:36.590Z,1929.00
2023-04-28T03:03:36.630Z,1926.00
2023-04-28T03:04:36.579Z,1930.00
2023-04-28T03:05:36.511Z,1929.00
2023-04-28T03:06:36.534Z,1929.00
2023-04-28T03:07:36.559Z,1926.00
2023-04-28T03:08:36.592Z,1912.00
2023-04-28T03:09:36.591Z,1919.00
2023-04-28T03:10:36.621Z,1920.00
2023-04-28T03:11:36.641Z,1916.00
2023-04-28T03:12:36.653Z,1921.00
2023-04-28T03:13:36.674Z,1910.00
2023-04-28T03:14:36.691Z,1901.00
2023-04-28T03:15:36.728Z,1902.00
2023-04-28T03:16:36.787Z,1902.00
2023-04-28T03:17:36.793Z,1901.00
2023-04-28T03:18:36.768Z,1906.00
2023-04-28T03:19:36.800Z,1905.00
2023-04-28T03:20:36.811Z,1905.00
2023-04-28T03:21:36.836Z,1903.00
2023-04-28T03:22:36.859Z,1903.00
2023-04-28T03:23:36.858Z,1908.00
2023-04-28T03:24:36.958Z,1896.00
2023-04-28T03:25:36.885Z,1897.00
2023-04-28T03:26:36.901Z,1897.00
2023-04-28T03:27:36.912Z,1904.00
2023-04-28T03:28:36.930Z,1906.00
2023-04-28T03:29:36.949Z,1912.00
2023-04-28T03:30:36.963Z,1911.00
2023-04-28T03:31:37.004Z,1901.00
2023-04-28T03:32:37.071Z,1899.00
2023-04-28T03:33:37.027Z,1901.00
2023-04-28T03:34:37.060Z,1899.00
2023-04-28T03:35:37.075Z,1897.00
2023-04-28T03:36:37.094Z,1901.00
2023-04-28T03:37:37.113Z,1896.00
2023-04-28T03:38:37.129Z,1897.00
2023-04-28T03:39:37.150Z,1898.00
2023-04-28T03:40:37.145Z,1895.00
2023-04-28T03:41:37.167Z,1898.00
2023-04-28T03:42:37.175Z,1894.00
2023-04-28T03:43:37.190Z,1888.00
2023-04-28T03:44:37.202Z,1883.00
2023-04-28T03:45:37.267Z,1881.00
2023-04-28T03:46:37.232Z,1876.00
2023-04-28T03:47:37.255Z,1871.00
2023-04-28T03:48:37.269Z,1869.00
2023-04-28T03:49:37.298Z,1878.00
2023-04-28T03:50:37.323Z,1873.00
2023-04-28T03:51:37.342Z,1872.00
2023-04-28T03:52:37.357Z,1873.00
2023-04-28T03:53:37.376Z,1871.00
2023-04-28T03:54:37.384Z,1869.00
2023-04-28T03:55:37.407Z,1872.00
2023-04-28T03:56:37.429Z,1871.00
2023-04-28T03:57:37.445Z,1861.00
2023-04-28T03:58:37.455Z,1854.00
2023-04-28T03:59:37.457Z,1862.00
2023-04-28T04:00:37.480Z,1862.00
2023-04-28T04:01:37.474Z,1867.00
2023-04-28T04:02:37.607Z,1871.00
2023-04-28T04:03:37.686Z,1869.00
2023-04-28T04:04:37.780Z,1865.00
2023-04-28T04:05:37.600Z,1865.00
2023-04-28T04:06:37.554Z,1864.00
2023-04-28T04:07:37.558Z,1870.00
2023-04-28T04:08:37.577Z,1870.00
2023-04-28T04:09:37.595Z,1868.00
2023-04-28T04:10:37.625Z,1862.00
2023-04-28T04:11:37.641Z,1860.00
2023-04-28T04:12:37.663Z,1857.00
2023-04-28T04:13:37.669Z,1860.00
2023-04-28T04:14:37.679Z,1862.00
2023-04-28T04:15:37.733Z,1862.00
2023-04-28T04:16:37.718Z,1858.00
2023-04-28T04:17:37.755Z,1855.00
2023-04-28T04:18:37.767Z,1854.00
2023-04-28T04:19:37.768Z,1855.00
2023-04-28T04:20:37.799Z,1855.00
2023-04-28T04:21:37.810Z,1855.00
2023-04-28T04:22:37.824Z,1852.00
2023-04-28T04:23:37.834Z,1849.00
2023-04-28T04:24:37.846Z,1850.00
2023-04-28T04:25:37.864Z,1852.00
2023-04-28T04:26:37.898Z,1850.00
2023-04-28T04:27:37.904Z,1846.00
2023-04-28T04:28:37.917Z,1844.00
2023-04-28T04:29:38.768Z,1848.00
2023-04-28T04:30:37.965Z,1843.00
2023-04-28T04:31:38.125Z,1847.00
2023-04-28T04:32:38.117Z,1846.00
2023-04-28T04:33:38.041Z,1839.00
2023-04-28T04:34:38.041Z,1843.00
2023-04-28T04:35:38.072Z,1850.00
2023-04-28T04:36:38.081Z,1851.00
2023-04-28T04:37:38.102Z,1852.00
2023-04-28T04:38:38.110Z,1852.00
2023-04-28T04:39:38.127Z,1854.00
2023-04-28T04:40:38.143Z,1856.00
2023-04-28T04:41:38.158Z,1850.00
2023-04-28T04:42:38.180Z,1848.00
2023-04-28T04:43:38.170Z,1842.00
2023-04-28T04:44:38.183Z,1839.00
2023-04-28T04:45:38.202Z,1834.00
2023-04-28T04:46:38.232Z,1833.00
2023-04-28T04:47:38.298Z,1824.00
2023-04-28T04:48:38.265Z,1818.00
2023-04-28T04:49:38.312Z,1820.00
2023-04-28T04:50:38.298Z,1817.00
2023-04-28T04:51:38.325Z,1821.00
2023-04-28T04:52:38.331Z,1823.00
2023-04-28T04:53:38.343Z,1823.00
2023-04-28T04:54:38.369Z,1825.00
2023-04-28T04:55:38.391Z,1815.00
2023-04-28T04:56:38.428Z,1822.00
2023-04-28T04:57:38.444Z,1823.00
2023-04-28T04:58:38.470Z,1818.00
2023-04-28T04:59:38.507Z,1817.00
2023-04-28T05:00:38.528Z,1820.00
2023-04-28T05:01:38.566Z,1817.00
2023-04-28T05:02:38.712Z,1816.00
2023-04-28T05:03:38.634Z,1817.00
2023-04-28T05:04:38.694Z,1821.00
2023-04-28T05:05:38.608Z,1815.00
2023-04-28T05:06:38.629Z,1814.00
2023-04-28T05:07:38.641Z,1814.00
2023-04-28T05:08:38.641Z,1819.00
2023-04-28T05:09:38.665Z,1811.00
2023-04-28T05:10:38.682Z,1812.00
2023-04-28T05:11:38.717Z,1813.00
2023-04-28T05:12:38.736Z,1814.00
2023-04-28T05:13:38.746Z,1809.00
2023-04-28T05:14:38.773Z,1803.00
2023-04-28T05:15:38.792Z,1806.00
2023-04-28T05:16:38.882Z,1811.00
2023-04-28T05:17:38.860Z,1815.00
2023-04-28T05:18:38.849Z,1812.00
2023-04-28T05:19:38.853Z,1806.00
2023-04-28T05:20:38.876Z,1794.00
2023-04-28T05:21:38.894Z,1794.00
2023-04-28T05:22:38.930Z,1680.00
2023-04-28T05:23:38.896Z,1793.00
2023-04-28T05:24:38.901Z,1774.00
2023-04-28T05:25:38.905Z,1687.00
2023-04-28T05:26:38.938Z,1756.00
2023-04-28T05:27:38.934Z,1794.00
2023-04-28T05:28:38.950Z,1876.00
2023-04-28T05:29:38.964Z,1863.00
2023-04-28T05:30:38.972Z,1846.00
2023-04-28T05:31:39.027Z,1758.00
2023-04-28T05:32:38.991Z,1754.00
2023-04-28T05:33:38.993Z,1752.00
2023-04-28T05:34:39.066Z,1753.00
2023-04-28T05:35:39.000Z,1761.00
2023-04-28T05:36:38.989Z,1768.00
2023-04-28T05:37:39.004Z,1771.00
2023-04-28T05:38:39.006Z,1773.00
2023-04-28T05:39:39.009Z,1773.00
2023-04-28T05:40:39.025Z,1774.00
2023-04-28T05:41:39.027Z,1777.00
2023-04-28T05:42:39.052Z,1781.00
2023-04-28T05:43:39.056Z,1787.00
2023-04-28T05:44:40.645Z,1782.00
2023-04-28T05:45:39.061Z,1785.00
2023-04-28T05:46:39.059Z,1788.00
2023-04-28T05:47:38.967Z,1787.00
2023-04-28T05:48:38.890Z,1786.00
2023-04-28T05:49:38.836Z,1787.00
2023-04-28T05:50:39.112Z,1789.00
2023-04-28T05:51:38.733Z,1787.00
2023-04-28T05:52:38.693Z,1784.00
2023-04-28T05:53:38.717Z,1785.00
2023-04-28T05:54:38.607Z,1784.00
2023-04-28T05:55:38.553Z,1782.00
2023-04-28T05:56:38.513Z,1781.00
2023-04-28T05:57:49.296Z,1781.00
2023-04-28T05:58:39.419Z,1781.00
2023-04-28T05:59:38.349Z,1780.00
2023-04-28T06:00:38.311Z,1775.00
2023-04-28T06:01:38.268Z,1777.00
2023-04-28T06:02:38.309Z,1774.00
2023-04-28T06:03:38.404Z,1773.00
2023-04-28T06:04:38.302Z,1773.00
2023-04-28T06:05:38.238Z,1778.00
2023-04-28T06:06:38.037Z,1777.00
2023-04-28T06:07:38.064Z,1774.00
2023-04-28T06:08:38.081Z,1775.00
2023-04-28T06:09:38.152Z,1774.00
2023-04-28T06:10:38.122Z,1777.00
2023-04-28T06:11:38.147Z,1773.00
2023-04-28T06:12:38.165Z,1776.00
2023-04-28T06:13:38.187Z,1777.00
2023-04-28T06:14:38.199Z,1775.00
2023-04-28T06:15:38.264Z,1771.00
2023-04-28T06:16:38.247Z,1779.00
2023-04-28T06:17:38.291Z,1775.00
2023-04-28T06:18:38.283Z,1771.00
2023-04-28T06:19:38.301Z,1772.00
2023-04-28T06:20:38.314Z,1762.00
2023-04-28T06:21:38.341Z,1765.00
2023-04-28T06:22:38.360Z,1766.00
2023-04-28T06:23:38.397Z,1773.00
2023-04-28T06:24:38.402Z,1802.00
2023-04-28T06:25:38.598Z,1853.00
2023-04-28T06:26:38.379Z,1879.00
2023-04-28T06:27:38.366Z,1914.00
2023-04-28T06:28:38.405Z,1997.00
2023-04-28T06:29:38.403Z,2014.00
2023-04-28T06:30:38.420Z,2066.00
2023-04-28T06:31:38.443Z,2174.00
2023-04-28T06:32:38.495Z,2236.00
2023-04-28T06:33:38.443Z,2220.00
2023-04-28T06:34:38.424Z,2238.00
2023-04-28T06:35:38.418Z,2264.00
2023-04-28T06:36:39.317Z,2280.00
2023-04-28T06:37:38.367Z,2333.00
2023-04-28T06:38:38.343Z,2345.00
2023-04-28T06:39:38.312Z,2386.00
2023-04-28T06:40:38.274Z,2413.00
2023-04-28T06:41:38.233Z,2441.00
2023-04-28T06:42:38.196Z,2472.00
2023-04-28T06:43:38.168Z,2488.00
2023-04-28T06:44:38.110Z,2505.00
2023-04-28T06:45:38.092Z,2550.00
2023-04-28T06:46:38.059Z,2566.00
2023-04-28T06:47:37.970Z,2599.00
2023-04-28T06:48:37.912Z,2620.00
2023-04-28T06:49:37.856Z,2642.00
2023-04-28T06:50:37.797Z,2695.00
2023-04-28T06:51:37.750Z,2727.00
2023-04-28T06:52:39.548Z,2739.00
2023-04-28T06:53:37.676Z,2770.00
2023-04-28T06:54:37.615Z,2824.00
2023-04-28T06:55:37.579Z,2831.00
2023-04-28T06:56:37.542Z,2861.00
2023-04-28T06:57:37.509Z,2887.00
2023-04-28T06:58:37.497Z,2919.00
2023-04-28T06:59:37.483Z,2935.00
2023-04-28T07:00:37.583Z,2962.00
2023-04-28T07:01:37.516Z,2997.00
2023-04-28T07:02:37.649Z,3038.00
2023-04-28T07:03:37.540Z,3061.00
2023-04-28T07:04:37.501Z,3081.00
2023-04-28T07:05:37.522Z,3162.00
2023-04-28T07:06:37.530Z,3159.00
2023-04-28T07:07:37.536Z,3173.00
2023-04-28T07:08:37.540Z,3234.00
2023-04-28T07:09:37.557Z,3245.00
2023-04-28T07:10:37.534Z,3256.00
2023-04-28T07:11:37.541Z,3276.00
2023-04-28T07:12:37.546Z,3310.00
2023-04-28T07:13:37.575Z,3344.00
2023-04-28T07:14:37.566Z,3360.00
2023-04-28T07:15:37.828Z,3427.00
2023-04-28T07:16:45.485Z,3473.00
2023-04-28T07:17:37.538Z,3466.00
2023-04-28T07:18:37.419Z,3476.00
2023-04-28T07:19:37.358Z,2994.00
2023-04-28T07:20:38.853Z,2523.00
2023-04-28T07:21:37.255Z,2296.00
2023-04-28T07:22:37.216Z,2040.00
2023-04-28T07:23:37.180Z,1749.00
2023-04-28T07:24:37.172Z,1745.00
2023-04-28T07:25:37.120Z,1648.00
2023-04-28T07:26:37.159Z,1510.00
2023-04-28T07:27:37.090Z,1472.00
2023-04-28T07:28:37.286Z,1460.00
2023-04-28T07:29:37.085Z,1515.00
2023-04-28T07:30:37.077Z,1514.00
2023-04-28T07:31:37.111Z,1532.00
2023-04-28T07:32:37.138Z,1652.00
2023-04-28T07:33:37.142Z,1704.00
2023-04-28T07:34:37.142Z,1709.00
2023-04-28T07:35:37.172Z,1759.00
2023-04-28T07:36:37.174Z,1773.00
2023-04-28T07:37:37.169Z,1796.00
2023-04-28T07:38:37.175Z,1850.00
2023-04-28T07:39:37.158Z,1866.00
2023-04-28T07:40:37.139Z,1883.00
2023-04-28T07:41:37.112Z,1903.00
2023-04-28T07:42:37.088Z,1961.00
2023-04-28T07:43:37.073Z,1978.00
2023-04-28T07:44:37.058Z,1985.00
2023-04-28T07:45:37.042Z,2040.00
2023-04-28T07:46:37.033Z,2036.00
2023-04-28T07:47:36.990Z,2034.00
2023-04-28T07:48:36.946Z,2067.00
2023-04-28T07:49:36.922Z,2112.00
2023-04-28T07:50:36.894Z,2084.00
2023-04-28T07:51:36.866Z,2088.00
2023-04-28T07:52:37.337Z,2157.00
2023-04-28T07:53:36.815Z,2167.00
2023-04-28T07:54:37.261Z,2189.00
2023-04-28T07:55:36.721Z,2225.00
2023-04-28T07:56:36.682Z,2235.00
2023-04-28T07:57:36.642Z,2267.00
2023-04-28T07:58:36.610Z,2267.00
2023-04-28T07:59:37.349Z,2286.00
2023-04-28T08:00:36.518Z,2355.00
2023-04-28T08:01:36.654Z,2358.00
2023-04-28T08:02:36.569Z,2356.00
2023-04-28T08:03:36.661Z,2357.00
2023-04-28T08:04:37.548Z,2365.00
2023-04-28T08:05:36.337Z,2374.00
2023-04-28T08:06:36.263Z,2401.00
2023-04-28T08:07:36.227Z,2440.00
2023-04-28T08:08:36.178Z,2448.00
2023-04-28T08:09:36.128Z,2496.00
2023-04-28T08:10:36.100Z,2525.00
2023-04-28T08:11:36.067Z,2487.00
2023-04-28T08:12:37.268Z,2146.00
2023-04-28T08:13:36.863Z,1860.00
2023-04-28T08:14:36.865Z,1881.00
2023-04-28T08:15:35.929Z,1787.00
2023-04-28T08:16:35.887Z,1765.00
2023-04-28T08:17:35.907Z,1771.00
2023-04-28T08:18:35.828Z,1646.00
2023-04-28T08:19:35.780Z,1626.00
2023-04-28T08:20:35.754Z,1519.00
2023-04-28T08:21:38.859Z,1474.00
2023-04-28T08:22:35.658Z,1371.00
2023-04-28T08:23:35.610Z,1343.00
2023-04-28T08:24:35.536Z,1312.00
2023-04-28T08:25:35.493Z,1283.00
2023-04-28T08:26:35.435Z,1344.00
2023-04-28T08:27:35.379Z,1311.00
2023-04-28T08:28:35.345Z,1316.00
2023-04-28T08:29:35.399Z,1376.00
2023-04-28T08:30:35.234Z,1409.00
2023-04-28T08:31:35.232Z,1422.00
2023-04-28T08:32:35.182Z,1460.00
2023-04-28T08:33:35.093Z,1514.00
2023-04-28T08:34:35.793Z,1554.00
2023-04-28T08:35:34.993Z,1603.00
2023-04-28T08:36:34.911Z,1612.00
2023-04-28T08:37:34.869Z,1661.00
2023-04-28T08:38:34.812Z,1728.00
2023-04-28T08:39:34.756Z,1742.00
2023-04-28T08:40:34.699Z,1768.00
2023-04-28T08:41:34.631Z,1789.00
2023-04-28T08:42:34.618Z,1816.00
2023-04-28T08:43:34.538Z,1871.00
2023-04-28T08:44:34.482Z,1905.00
2023-04-28T08:45:34.408Z,1932.00
2023-04-28T08:46:34.384Z,1940.00
2023-04-28T08:47:34.343Z,1999.00
2023-04-28T08:48:34.266Z,2029.00
2023-04-28T08:49:34.202Z,2051.00
2023-04-28T08:50:34.137Z,2065.00
2023-04-28T08:51:34.110Z,2105.00
2023-04-28T08:52:34.028Z,2147.00
2023-04-28T08:53:36.585Z,2173.00
2023-04-28T08:54:35.148Z,2193.00
2023-04-28T08:55:33.895Z,2248.00
2023-04-28T08:56:33.816Z,2274.00
2023-04-28T08:57:33.730Z,2292.00
2023-04-28T08:58:33.680Z,2322.00
2023-04-28T08:59:33.629Z,2371.00
2023-04-28T09:00:33.553Z,2390.00
2023-04-28T09:01:33.535Z,2428.00
2023-04-28T09:02:33.505Z,2456.00
2023-04-28T09:03:33.569Z,2479.00
2023-04-28T09:04:33.622Z,2525.00
2023-04-28T09:05:33.470Z,2547.00
2023-04-28T09:06:33.408Z,2586.00
2023-04-28T09:07:33.333Z,2611.00
2023-04-28T09:08:33.389Z,2668.00
2023-04-28T09:09:34.968Z,2671.00
2023-04-28T09:10:33.829Z,2687.00
2023-04-28T09:11:33.280Z,2737.00
2023-04-28T09:12:33.862Z,2784.00
2023-04-28T09:13:33.175Z,2805.00
2023-04-28T09:14:32.990Z,2852.00
2023-04-28T09:15:34.121Z,2878.00
2023-04-28T09:16:32.896Z,2896.00
2023-04-28T09:17:32.877Z,2911.00
2023-04-28T09:18:32.751Z,2998.00
2023-04-28T09:19:32.706Z,2887.00
2023-04-28T09:20:32.605Z,2893.00
2023-04-28T09:21:32.554Z,2882.00
2023-04-28T09:22:32.509Z,2841.00
2023-04-28T09:23:32.415Z,2904.00
2023-04-28T09:24:32.869Z,2875.00
2023-04-28T09:25:32.304Z,2851.00
2023-04-28T09:26:32.231Z,2842.00
2023-04-28T09:27:32.228Z,2834.00
2023-04-28T09:28:32.129Z,2831.00
2023-04-28T09:29:32.067Z,2826.00
2023-04-28T09:30:31.968Z,2798.00
2023-04-28T09:31:31.923Z,2681.00
2023-04-28T09:32:31.996Z,2710.00
2023-04-28T09:33:31.784Z,2756.00
2023-04-28T09:34:31.731Z,2768.00
2023-04-28T09:35:31.656Z,2816.00
2023-04-28T09:36:31.600Z,2837.00
2023-04-28T09:37:31.526Z,2847.00
2023-04-28T09:38:31.506Z,2859.00
2023-04-28T09:39:31.521Z,2865.00
2023-04-28T09:40:31.497Z,2892.00
2023-04-28T09:41:31.494Z,2907.00
2023-04-28T09:42:31.484Z,2923.00
2023-04-28T09:43:31.525Z,2946.00
2023-04-28T09:44:31.500Z,2971.00
2023-04-28T09:45:31.497Z,2984.00
2023-04-28T09:46:31.634Z,2990.00
2023-04-28T09:47:31.563Z,3006.00
2023-04-28T09:48:31.536Z,3030.00
2023-04-28T09:49:31.518Z,3044.00
2023-04-28T09:50:31.509Z,3050.00
2023-04-28T09:51:31.509Z,3064.00
2023-04-28T09:52:31.503Z,3070.00
2023-04-28T09:53:31.532Z,3084.00
2023-04-28T09:54:31.514Z,3095.00
2023-04-28T09:55:31.515Z,3113.00
2023-04-28T09:56:31.539Z,3122.00
2023-04-28T09:57:31.522Z,3129.00
2023-04-28T09:58:31.533Z,3160.00
2023-04-28T09:59:31.528Z,3183.00
2023-04-28T10:00:31.523Z,3192.00
2023-04-28T10:01:31.544Z,3209.00
2023-04-28T10:03:31.609Z,3249.00
2023-04-28T10:04:31.558Z,3269.00
2023-04-28T10:05:32.074Z,3271.00
2023-04-28T10:06:31.885Z,3289.00
2023-04-28T10:07:31.164Z,3295.00
2023-04-28T10:08:31.100Z,3306.00
2023-04-28T10:09:31.037Z,3320.00
2023-04-28T10:10:30.973Z,3333.00
2023-04-28T10:11:30.902Z,3343.00
2023-04-28T10:12:30.846Z,3343.00
2023-04-28T10:13:30.788Z,3346.00
2023-04-28T10:14:30.727Z,3338.00
2023-04-28T10:15:30.688Z,3338.00
2023-04-28T10:16:30.654Z,3326.00
2023-04-28T10:17:30.554Z,3323.00
2023-04-28T10:18:30.567Z,3312.00
2023-04-28T10:19:30.559Z,3306.00
2023-04-28T10:20:30.555Z,3296.00
2023-04-28T10:21:30.525Z,3297.00
2023-04-28T10:22:30.506Z,3287.00
2023-04-28T10:23:30.478Z,3287.00
2023-04-28T10:24:30.463Z,3284.00
2023-04-28T10:25:30.436Z,3281.00
2023-04-28T10:26:30.379Z,3288.00
2023-04-28T10:27:30.349Z,3277.00
2023-04-28T10:28:30.298Z,3275.00
2023-04-28T10:29:30.823Z,3274.00
2023-04-28T10:30:30.521Z,3264.00
2023-04-28T10:31:30.328Z,3253.00
2023-04-28T10:32:30.185Z,3243.00
2023-04-28T10:33:30.390Z,3242.00
2023-04-28T10:34:31.416Z,3248.00
2023-04-28T10:35:30.032Z,3239.00
2023-04-28T10:36:36.007Z,3232.00
2023-04-28T10:37:30.926Z,3236.00
2023-04-28T10:38:29.863Z,3227.00
2023-04-28T10:39:29.806Z,3229.00
2023-04-28T10:40:29.743Z,3228.00
2023-04-28T10:41:29.691Z,3227.00
2023-04-28T10:42:29.629Z,3222.00
2023-04-28T10:43:29.787Z,3224.00
2023-04-28T10:44:29.515Z,3225.00
2023-04-28T10:45:29.461Z,3226.00
2023-04-28T10:46:29.413Z,3221.00
2023-04-28T10:47:29.362Z,3221.00
2023-04-28T10:48:29.281Z,3214.00
2023-04-28T10:49:29.233Z,3218.00
2023-04-28T10:50:38.380Z,3220.00
2023-04-28T10:51:30.103Z,3224.00
2023-04-28T10:52:29.047Z,3221.00
2023-04-28T10:53:29.184Z,3215.00
2023-04-28T10:54:28.933Z,3208.00
2023-04-28T10:55:28.895Z,3207.00
2023-04-28T10:56:28.808Z,3204.00
2023-04-28T10:57:28.756Z,3202.00
2023-04-28T10:58:28.692Z,3203.00
2023-04-28T10:59:28.626Z,3208.00
2023-04-28T11:00:28.566Z,3210.00
2023-04-28T11:01:28.552Z,3202.00
2023-04-28T11:02:28.743Z,3200.00
2023-04-28T11:03:28.820Z,3192.00
2023-04-28T11:04:28.581Z,3202.00
2023-04-28T11:05:28.273Z,3201.00
2023-04-28T11:06:28.221Z,3194.00
2023-04-28T11:07:28.124Z,3184.00
2023-04-28T11:08:28.087Z,3190.00
2023-04-28T11:09:28.014Z,3185.00
2023-04-28T11:10:27.954Z,3173.00
2023-04-28T11:11:27.892Z,3171.00
2023-04-28T11:12:27.835Z,3172.00
2023-04-28T11:13:27.984Z,3172.00
2023-04-28T11:14:27.726Z,3169.00
2023-04-28T11:15:27.681Z,3165.00
2023-04-28T11:16:27.643Z,3164.00
2023-04-28T11:17:27.556Z,3161.00
2023-04-28T11:18:27.468Z,3156.00
2023-04-28T11:19:27.416Z,3156.00
2023-04-28T11:20:27.354Z,3155.00
2023-04-28T11:21:27.283Z,3149.00
2023-04-28T11:22:27.212Z,3145.00
2023-04-28T11:23:27.293Z,3141.00
2023-04-28T11:24:27.094Z,3139.00
2023-04-28T11:25:27.048Z,3130.00
2023-04-28T11:26:27.000Z,3123.00
2023-04-28T11:27:26.969Z,3117.00
2023-04-28T11:28:26.909Z,3122.00
2023-04-28T11:29:26.870Z,3128.00
2023-04-28T11:30:26.817Z,3128.00
2023-04-28T11:31:26.833Z,3124.00
2023-04-28T11:32:26.785Z,3132.00
2023-04-28T11:33:26.698Z,3130.00
2023-04-28T11:34:26.671Z,3125.00
2023-04-28T11:35:26.608Z,3121.00
2023-04-28T11:36:26.567Z,3102.00
2023-04-28T11:37:26.514Z,3107.00
2023-04-28T11:38:26.478Z,3109.00
2023-04-28T11:39:26.437Z,3117.00
2023-04-28T11:40:26.396Z,3107.00
2023-04-28T11:41:26.356Z,3105.00
2023-04-28T11:42:26.311Z,3106.00
2023-04-28T11:43:31.094Z,3101.00
2023-04-28T11:44:27.222Z,3099.00
2023-04-28T11:45:26.163Z,3098.00
2023-04-28T11:46:26.218Z,3097.00
2023-04-28T11:47:26.050Z,3101.00
2023-04-28T11:48:25.976Z,3099.00
2023-04-28T11:49:25.921Z,3087.00
2023-04-28T11:50:25.867Z,3085.00
2023-04-28T11:51:25.783Z,3078.00
2023-04-28T11:52:25.725Z,3071.00
2023-04-28T11:53:25.680Z,3068.00
2023-04-28T11:54:25.610Z,3073.00
2023-04-28T11:55:25.547Z,3074.00
2023-04-28T11:56:25.488Z,3064.00
2023-04-28T11:57:25.453Z,3060.00
2023-04-28T11:58:25.375Z,3061.00
2023-04-28T11:59:25.440Z,3062.00
2023-04-28T12:00:25.267Z,3061.00
2023-04-28T12:01:25.315Z,3055.00
2023-04-28T12:02:25.296Z,3054.00
2023-04-28T12:03:25.198Z,3050.00
2023-04-28T12:04:25.078Z,3050.00
2023-04-28T12:05:25.004Z,3047.00
2023-04-28T12:06:24.930Z,3037.00